Time;durP1;ratioP1;P1;durP2;ratioP2;P2;SDS_P1;SDS_P2;PMS_P1;PMS_P2;Temp;Humidity;BMP_temperature;BMP_pressure;BME280_temperature;BME280_humidity;BME280_pressure;Samples;Min_cycle;Max_cycle;Signal;HPM_P1;HPM_P2
2021/07/13 00:02:08;;;;;;;56.97;49.28;;;18.60;99.90;;;;;;5082565;28;20583;-70
2021/07/13 00:04:35;;;;;;;57.75;51.28;;;18.60;99.90;;;;;;5082738;28;20040;-70
2021/07/13 00:07:02;;;;;;;61.88;52.05;;;18.70;99.90;;;;;;5081936;28;20032;-70
2021/07/13 00:09:28;;;;;;;60.15;53.65;;;18.70;99.90;;;;;;5084318;28;20131;-70
2021/07/13 00:11:56;;;;;;;70.90;54.33;;;18.80;99.90;;;;;;5083347;28;20032;-70
2021/07/13 00:14:22;;;;;;;61.38;54.75;;;18.80;99.90;;;;;;5081493;28;20043;-69
2021/07/13 00:16:48;;;;;;;67.38;58.38;;;18.80;99.90;;;;;;5082882;28;20044;-70
2021/07/13 00:19:14;;;;;;;66.88;57.20;;;18.80;99.90;;;;;;5083033;28;20048;-70
2021/07/13 00:21:41;;;;;;;60.10;53.15;;;18.80;99.90;;;;;;5080567;28;20061;-70
2021/07/13 00:24:08;;;;;;;64.43;55.65;;;18.80;99.90;;;;;;5078598;28;20055;-70
2021/07/13 00:26:37;;;;;;;72.50;56.33;;;18.80;99.90;;;;;;5081358;28;20035;-70
2021/07/13 00:29:06;;;;;;;64.55;56.50;;;18.80;99.90;;;;;;5082578;28;20129;-70
2021/07/13 00:31:33;;;;;;;66.30;57.90;;;18.80;99.90;;;;;;5082384;28;20390;-69
2021/07/13 00:33:59;;;;;;;69.45;58.28;;;18.80;99.90;;;;;;5078366;28;20028;-70
2021/07/13 00:36:26;;;;;;;69.80;57.85;;;18.80;99.90;;;;;;5084884;28;20107;-70
2021/07/13 00:38:51;;;;;;;68.95;58.10;;;18.90;99.90;;;;;;5082746;28;20040;-70
2021/07/13 00:41:17;;;;;;;81.05;65.63;;;18.90;99.90;;;;;;5082136;28;20032;-69
2021/07/13 00:43:43;;;;;;;67.78;59.92;;;18.90;99.90;;;;;;5078835;28;20047;-70
2021/07/13 00:46:11;;;;;;;70.90;61.08;;;18.90;99.90;;;;;;5082098;28;20413;-69
2021/07/13 00:48:37;;;;;;;89.05;65.70;;;18.90;99.90;;;;;;5082741;28;20402;-69
2021/07/13 00:51:05;;;;;;;74.25;62.33;;;18.80;99.90;;;;;;5081246;28;20037;-69
2021/07/13 00:53:32;;;;;;;71.22;62.47;;;18.90;99.90;;;;;;5078056;28;20035;-69
2021/07/13 00:55:58;;;;;;;87.75;64.95;;;18.80;99.90;;;;;;5083129;28;20043;-70
2021/07/13 00:58:25;;;;;;;73.25;62.33;;;18.90;99.90;;;;;;5085299;28;20393;-69
2021/07/13 01:00:51;;;;;;;73.85;60.42;;;18.90;99.90;;;;;;5079250;28;20128;-69
2021/07/13 01:03:17;;;;;;;74.03;60.20;;;18.90;99.90;;;;;;5079820;28;20028;-70
2021/07/13 01:05:48;;;;;;;74.00;61.65;;;18.80;99.90;;;;;;5081531;28;20036;-69
2021/07/13 01:08:34;;;;;;;79.25;62.00;;;18.80;99.90;;;;;;5093933;28;20048;-69
2021/07/13 01:11:11;;;;;;;72.35;61.45;;;18.80;99.90;;;;;;5082490;28;20831;-69
2021/07/13 01:14:03;;;;;;;77.30;61.42;;;18.80;99.90;;;;;;5078367;28;20130;-69
2021/07/13 01:16:42;;;;;;;69.60;59.35;;;18.80;99.90;;;;;;5082129;28;20043;-69
2021/07/13 01:19:35;;;;;;;72.35;60.08;;;18.70;99.90;;;;;;5082390;28;20078;-69
2021/07/13 01:22:22;;;;;;;75.43;61.58;;;18.70;99.90;;;;;;5083521;28;20047;-70
2021/07/13 01:24:52;;;;;;;84.72;65.43;;;18.80;99.90;;;;;;5080778;28;20103;-69
2021/07/13 01:27:27;;;;;;;88.50;66.30;;;18.70;99.90;;;;;;5082804;28;20434;-69
2021/07/13 01:29:56;;;;;;;80.10;60.90;;;18.70;99.90;;;;;;5083368;28;20040;-69
2021/07/13 01:32:26;;;;;;;92.80;68.65;;;18.70;99.90;;;;;;5079086;28;20071;-69
2021/07/13 01:35:03;;;;;;;77.68;61.35;;;18.70;99.90;;;;;;5079943;28;20036;-69
2021/07/13 01:37:30;;;;;;;77.72;59.65;;;18.70;99.90;;;;;;5082853;28;20506;-69
2021/07/13 01:39:58;;;;;;;73.03;58.33;;;18.70;99.90;;;;;;5077806;28;20044;-70
2021/07/13 01:42:26;;;;;;;70.78;60.00;;;18.70;99.90;;;;;;5079657;28;20055;-69
2021/07/13 01:44:53;;;;;;;71.70;59.03;;;18.70;99.90;;;;;;5078242;28;20524;-69
2021/07/13 01:47:20;;;;;;;76.43;59.50;;;18.70;99.90;;;;;;5083132;28;20039;-69
2021/07/13 01:49:47;;;;;;;83.75;62.95;;;18.60;99.90;;;;;;5080548;28;20048;-70
2021/07/13 01:52:15;;;;;;;62.17;54.80;;;18.70;99.90;;;;;;5079592;28;20089;-69
2021/07/13 01:54:43;;;;;;;64.78;55.83;;;18.70;99.90;;;;;;5080327;28;20055;-69
2021/07/13 01:57:10;;;;;;;66.35;54.13;;;18.60;99.90;;;;;;5082136;28;20788;-69
2021/07/13 01:59:40;;;;;;;63.20;54.53;;;18.70;99.90;;;;;;5083812;28;20040;-70
2021/07/13 02:02:08;;;;;;;64.07;54.80;;;18.70;99.90;;;;;;5083340;28;20041;-69
2021/07/13 02:04:37;;;;;;;62.92;54.70;;;18.70;99.90;;;;;;5083334;28;20493;-69
2021/07/13 02:07:08;;;;;;;66.38;57.95;;;18.70;99.90;;;;;;5086518;28;20497;-70
2021/07/13 02:09:43;;;;;;;62.63;55.72;;;18.70;99.90;;;;;;5085182;28;20048;-70
2021/07/13 02:12:09;;;;;;;;;;;18.70;99.90;;;;;;5084769;28;20143;-70
2021/07/13 02:14:36;;;;;;;70.03;58.70;;;18.70;99.90;;;;;;5082698;28;19920;-69
2021/07/13 02:17:02;;;;;;;70.75;57.58;;;18.70;99.90;;;;;;5083755;28;20047;-69
2021/07/13 02:19:28;;;;;;;76.40;61.55;;;18.70;99.90;;;;;;5085149;28;20032;-70
2021/07/13 02:21:57;;;;;;;68.75;58.58;;;18.70;99.90;;;;;;5084095;28;20715;-70
2021/07/13 02:24:24;;;;;;;78.28;59.55;;;18.70;99.90;;;;;;5083479;28;20036;-69
2021/07/13 02:26:52;;;;;;;72.00;59.85;;;18.70;99.90;;;;;;5085870;28;20500;-69
2021/07/13 02:29:25;;;;;;;95.45;59.97;;;18.70;99.90;;;;;;5085713;28;20071;-69
2021/07/13 02:32:07;;;;;;;74.45;61.25;;;18.70;99.90;;;;;;5063670;28;20497;-69
2021/07/13 02:34:37;;;;;;;91.40;65.97;;;18.70;99.90;;;;;;5081266;28;20047;-69
2021/07/13 02:37:04;;;;;;;73.22;61.10;;;18.70;99.90;;;;;;5069376;28;20043;-69
2021/07/13 02:39:33;;;;;;;70.78;58.35;;;18.70;99.90;;;;;;5083954;28;20046;-70
2021/07/13 02:42:01;;;;;;;83.35;62.78;;;18.70;99.90;;;;;;5083409;28;20189;-69
2021/07/13 02:44:29;;;;;;;78.57;60.55;;;18.70;99.90;;;;;;5078536;28;20381;-69
2021/07/13 02:46:57;;;;;;;84.68;62.97;;;18.70;99.90;;;;;;5083036;28;20040;-69
2021/07/13 02:49:30;;;;;;;80.85;59.70;;;18.70;99.90;;;;;;5084045;28;20032;-69
2021/07/13 02:51:59;;;;;;;90.70;63.30;;;18.70;99.90;;;;;;5082154;28;20070;-69
2021/07/13 02:54:36;;;;;;;90.05;61.97;;;18.70;99.90;;;;;;5079891;28;20487;-69
2021/07/13 02:57:03;;;;;;;84.43;62.72;;;18.60;99.90;;;;;;5084775;28;20880;-69
2021/07/13 02:59:32;;;;;;;71.95;58.45;;;18.60;99.90;;;;;;5081387;28;20493;-69
2021/07/13 03:01:59;;;;;;;74.30;59.13;;;18.70;99.90;;;;;;5081941;28;20158;-69
2021/07/13 03:04:24;;;;;;;72.68;58.40;;;18.60;99.90;;;;;;5081255;28;20838;-69
2021/07/13 03:06:52;;;;;;;67.82;55.45;;;18.60;99.90;;;;;;5084055;28;20029;-69
2021/07/13 03:09:19;;;;;;;72.32;58.92;;;18.60;99.90;;;;;;5081936;28;20052;-69
2021/07/13 03:11:45;;;;;;;87.50;62.72;;;18.60;99.90;;;;;;5085735;28;20734;-69
2021/07/13 03:14:14;;;;;;;87.35;63.63;;;18.60;99.90;;;;;;5080218;28;20232;-68
2021/07/13 03:16:40;;;;;;;83.75;62.00;;;18.60;99.90;;;;;;5082608;28;20036;-68
2021/07/13 03:19:08;;;;;;;71.53;59.05;;;18.60;99.90;;;;;;5067064;28;20575;-68
2021/07/13 03:21:38;;;;;;;75.25;59.22;;;18.60;99.90;;;;;;5082570;28;20044;-69
2021/07/13 03:24:06;;;;;;;83.75;61.28;;;18.60;99.90;;;;;;5079072;28;20032;-69
2021/07/13 03:26:36;;;;;;;78.22;58.92;;;18.60;99.90;;;;;;5067773;28;20036;-69
2021/07/13 03:29:03;;;;;;;76.78;59.88;;;18.60;99.90;;;;;;5083595;28;20040;-69
2021/07/13 03:31:30;;;;;;;77.43;58.22;;;18.60;99.90;;;;;;5083492;28;20032;-69
2021/07/13 03:34:00;;;;;;;94.13;66.55;;;18.60;99.90;;;;;;5080427;28;20036;-70
2021/07/13 03:36:26;;;;;;;86.25;60.83;;;18.60;99.90;;;;;;5081699;28;20043;-69
2021/07/13 03:38:52;;;;;;;84.85;60.90;;;18.50;99.90;;;;;;5063589;28;20044;-69
2021/07/13 03:41:19;;;;;;;77.25;59.65;;;18.50;99.90;;;;;;5081552;28;20048;-69
2021/07/13 03:43:46;;;;;;;91.82;65.65;;;18.50;99.90;;;;;;5079806;28;20033;-69
2021/07/13 03:46:12;;;;;;;72.85;57.88;;;18.50;99.90;;;;;;5081512;28;20039;-69
2021/07/13 03:48:39;;;;;;;85.10;62.92;;;18.50;99.90;;;;;;5082045;28;20519;-69
2021/07/13 03:51:05;;;;;;;72.15;57.65;;;18.50;99.90;;;;;;5079684;28;20035;-69
2021/07/13 03:53:31;;;;;;;72.13;57.03;;;18.50;99.90;;;;;;5077676;28;20109;-69
2021/07/13 03:55:57;;;;;;;64.45;53.25;;;18.60;99.90;;;;;;5082883;28;20089;-69
2021/07/13 03:58:23;;;;;;;62.90;52.22;;;18.60;99.90;;;;;;5079404;28;20044;-69
2021/07/13 04:00:49;;;;;;;63.67;53.22;;;18.60;99.90;;;;;;5080807;28;20044;-69
2021/07/13 04:03:14;;;;;;;73.70;55.08;;;18.60;99.90;;;;;;5076583;28;20576;-69
2021/07/13 04:05:41;;;;;;;55.50;48.70;;;18.60;99.90;;;;;;5082350;28;20051;-69
2021/07/13 04:08:06;;;;;;;62.95;51.67;;;18.70;99.90;;;;;;5093512;28;20048;-69
2021/07/13 04:10:32;;;;;;;61.38;52.55;;;18.80;99.90;;;;;;5082169;28;20042;-70
2021/07/13 04:12:58;;;;;;;69.82;54.58;;;18.80;99.90;;;;;;5078939;28;20527;-69
2021/07/13 04:15:24;;;;;;;57.45;51.08;;;18.80;99.90;;;;;;5080955;28;20045;-70
2021/07/13 04:17:51;;;;;;;63.25;53.08;;;18.90;99.90;;;;;;5083426;28;20117;-69
2021/07/13 04:20:16;;;;;;;64.28;53.70;;;18.90;99.90;;;;;;5083710;28;20082;-70
2021/07/13 04:22:44;;;;;;;61.83;51.03;;;18.90;99.90;;;;;;5077114;28;20222;-70
2021/07/13 04:25:11;;;;;;;58.33;50.47;;;18.90;99.90;;;;;;5092344;28;20075;-70
2021/07/13 04:27:37;;;;;;;57.92;51.53;;;18.90;99.90;;;;;;5083373;28;21131;-69
2021/07/13 04:30:05;;;;;;;59.80;51.72;;;19.00;99.90;;;;;;5081856;28;20116;-69
2021/07/13 04:32:31;;;;;;;64.13;51.13;;;19.00;99.90;;;;;;5079653;28;20064;-70
2021/07/13 04:34:57;;;;;;;61.83;51.03;;;19.00;99.90;;;;;;5065506;28;20043;-69
2021/07/13 04:37:24;;;;;;;58.58;52.13;;;19.00;99.90;;;;;;5081050;28;20055;-69
2021/07/13 04:39:51;;;;;;;55.05;49.03;;;19.10;99.90;;;;;;5079116;28;20514;-69
2021/07/13 04:42:17;;;;;;;54.90;49.05;;;19.10;99.90;;;;;;5079939;28;20032;-70
2021/07/13 04:44:43;;;;;;;60.90;50.53;;;19.10;99.90;;;;;;5078682;28;20044;-69
2021/07/13 04:47:09;;;;;;;62.75;49.58;;;19.10;99.90;;;;;;5081667;28;20061;-69
2021/07/13 04:49:35;;;;;;;59.10;48.80;;;19.20;99.90;;;;;;5083981;28;20036;-69
2021/07/13 04:52:02;;;;;;;62.50;48.25;;;19.20;99.90;;;;;;5079393;28;20128;-70
2021/07/13 04:54:31;;;;;;;57.65;48.13;;;19.20;99.90;;;;;;5079718;28;20686;-70
2021/07/13 04:56:58;;;;;;;61.75;49.47;;;19.30;99.90;;;;;;5080485;28;20066;-69
2021/07/13 04:59:25;;;;;;;59.17;48.72;;;19.30;99.90;;;;;;5082785;28;20557;-69
2021/07/13 05:01:51;;;;;;;66.05;51.55;;;19.40;99.90;;;;;;5083631;28;20179;-69
2021/07/13 05:04:16;;;;;;;63.85;49.30;;;19.50;99.90;;;;;;5080231;28;20040;-70
2021/07/13 05:06:42;;;;;;;65.32;49.15;;;19.50;99.90;;;;;;5083918;28;20040;-69
2021/07/13 05:09:08;;;;;;;62.65;47.55;;;19.50;99.90;;;;;;5083865;28;20047;-70
2021/07/13 05:11:34;;;;;;;54.55;46.15;;;19.60;99.90;;;;;;5084106;28;20050;-70
2021/07/13 05:14:02;;;;;;;59.60;46.45;;;19.70;99.90;;;;;;5062382;28;20059;-70
2021/07/13 05:16:28;;;;;;;50.90;44.65;;;19.80;99.90;;;;;;5067036;28;20446;-70
2021/07/13 05:18:55;;;;;;;52.13;43.70;;;19.80;99.90;;;;;;5082552;28;20048;-70
2021/07/13 05:21:21;;;;;;;54.40;44.67;;;19.90;99.90;;;;;;5081356;28;20055;-70
2021/07/13 05:23:47;;;;;;;51.60;43.83;;;19.90;99.90;;;;;;5077679;28;20043;-70
2021/07/13 05:26:13;;;;;;;50.88;43.15;;;19.90;99.90;;;;;;5081068;28;20036;-70
2021/07/13 05:28:39;;;;;;;52.15;42.47;;;20.00;99.90;;;;;;5081244;28;20371;-70
2021/07/13 05:31:05;;;;;;;52.13;43.60;;;20.00;99.90;;;;;;5062337;28;20483;-70
2021/07/13 05:33:30;;;;;;;50.05;42.50;;;20.00;99.90;;;;;;5075843;28;20043;-70
2021/07/13 05:35:56;;;;;;;49.85;44.10;;;20.00;99.90;;;;;;5082463;28;20451;-70
2021/07/13 05:38:22;;;;;;;53.75;40.95;;;19.90;99.90;;;;;;5064877;28;20553;-70
2021/07/13 05:40:48;;;;;;;51.55;43.72;;;19.90;99.90;;;;;;5078671;28;20564;-70
2021/07/13 05:43:14;;;;;;;52.13;44.28;;;19.90;99.90;;;;;;5074491;28;20046;-70
2021/07/13 05:45:41;;;;;;;50.40;43.42;;;19.90;99.90;;;;;;5082139;28;20036;-70
2021/07/13 05:48:07;;;;;;;51.95;41.72;;;19.90;99.90;;;;;;5082156;28;20032;-70
2021/07/13 05:50:32;;;;;;;50.42;41.65;;;19.90;99.90;;;;;;5083934;28;20048;-70
2021/07/13 05:53:01;;;;;;;51.50;43.00;;;19.90;99.90;;;;;;5077054;28;20054;-69
2021/07/13 05:55:27;;;;;;;49.53;42.67;;;20.00;99.90;;;;;;5081520;28;20037;-70
2021/07/13 05:57:53;;;;;;;51.50;43.20;;;19.90;99.90;;;;;;5081458;28;20048;-70
2021/07/13 06:00:19;;;;;;;55.78;45.80;;;19.90;99.90;;;;;;5082992;28;20982;-69
2021/07/13 06:02:45;;;;;;;48.58;41.92;;;19.80;99.90;;;;;;5078763;28;20047;-70
2021/07/13 06:05:11;;;;;;;46.38;40.90;;;19.80;99.90;;;;;;5084760;28;20036;-70
2021/07/13 06:07:47;;;;;;;45.97;40.30;;;19.70;99.90;;;;;;5082672;28;20039;-70
2021/07/13 06:10:14;;;;;;;43.72;39.05;;;19.80;99.90;;;;;;5081904;28;20101;-70
2021/07/13 06:12:40;;;;;;;43.33;38.63;;;19.80;99.90;;;;;;5077021;28;20032;-70
2021/07/13 06:15:07;;;;;;;40.60;36.20;;;19.80;99.90;;;;;;5065003;28;20046;-70
2021/07/13 06:17:33;;;;;;;46.70;37.70;;;19.80;99.90;;;;;;5081613;28;20097;-69
2021/07/13 06:20:00;;;;;;;39.95;35.42;;;19.90;99.90;;;;;;5081406;28;20504;-70
2021/07/13 06:22:26;;;;;;;42.00;35.10;;;19.90;99.90;;;;;;5078267;28;20392;-69
2021/07/13 06:24:51;;;;;;;39.92;35.45;;;19.90;99.90;;;;;;5079796;28;20033;-70
2021/07/13 06:27:17;;;;;;;38.22;34.13;;;20.00;99.90;;;;;;5082516;28;20516;-69
2021/07/13 06:29:44;;;;;;;41.70;35.92;;;20.00;99.90;;;;;;5083273;28;20497;-69
2021/07/13 06:32:10;;;;;;;44.65;35.60;;;20.00;99.90;;;;;;5077822;28;20032;-69
2021/07/13 06:34:35;;;;;;;40.03;34.58;;;20.00;99.90;;;;;;5077077;28;21995;-69
2021/07/13 06:37:02;;;;;;;46.05;34.92;;;20.00;99.90;;;;;;5061767;28;20145;-70
2021/07/13 06:39:28;;;;;;;39.47;34.38;;;20.10;99.90;;;;;;5080808;28;20036;-70
2021/07/13 06:41:54;;;;;;;40.65;33.78;;;20.10;99.90;;;;;;5078907;28;20048;-70
2021/07/13 06:44:20;;;;;;;39.58;34.10;;;20.10;99.90;;;;;;5060923;28;20043;-70
2021/07/13 06:46:46;;;;;;;39.25;33.75;;;20.10;99.90;;;;;;5082631;28;20032;-70
2021/07/13 06:49:11;;;;;;;40.03;33.15;;;20.10;99.90;;;;;;5082038;28;20040;-70
2021/07/13 06:51:38;;;;;;;38.75;33.45;;;20.20;99.90;;;;;;5083672;28;20458;-70
2021/07/13 06:54:03;;;;;;;34.05;30.02;;;20.20;99.90;;;;;;5077730;28;20810;-70
2021/07/13 06:56:30;;;;;;;34.88;29.65;;;20.20;99.90;;;;;;5084791;28;20036;-69
2021/07/13 06:58:56;;;;;;;33.92;29.60;;;20.30;99.90;;;;;;5084683;28;20094;-70
2021/07/13 07:01:22;;;;;;;34.17;28.95;;;20.20;99.90;;;;;;5083584;28;20039;-70
2021/07/13 07:03:48;;;;;;;34.00;30.13;;;20.30;99.90;;;;;;5079096;28;20054;-70
2021/07/13 07:06:13;;;;;;;30.40;27.10;;;20.30;99.90;;;;;;5083028;28;20032;-70
2021/07/13 07:08:39;;;;;;;32.58;27.88;;;20.30;99.90;;;;;;5063149;28;20082;-70
2021/07/13 07:11:05;;;;;;;29.67;26.25;;;20.30;99.90;;;;;;5085437;28;20058;-70
2021/07/13 07:13:31;;;;;;;31.73;27.60;;;20.30;99.90;;;;;;5080218;28;20043;-70
2021/07/13 07:15:57;;;;;;;28.75;25.27;;;20.30;99.90;;;;;;5079680;28;20044;-70
2021/07/13 07:18:23;;;;;;;27.60;24.77;;;20.40;99.90;;;;;;5079559;28;20059;-70
2021/07/13 07:20:48;;;;;;;30.77;27.50;;;20.40;99.90;;;;;;5081812;28;20049;-70
2021/07/13 07:23:14;;;;;;;26.63;23.90;;;20.40;99.90;;;;;;5079814;28;20390;-70
2021/07/13 07:25:40;;;;;;;29.00;25.42;;;20.40;99.90;;;;;;5081326;28;20044;-70
2021/07/13 07:28:08;;;;;;;26.48;23.77;;;20.50;99.90;;;;;;5082153;28;20036;-70
2021/07/13 07:30:34;;;;;;;26.25;23.52;;;20.60;99.90;;;;;;5080140;28;20069;-70
2021/07/13 07:33:00;;;;;;;26.02;22.95;;;20.60;99.90;;;;;;5077794;28;20041;-70
2021/07/13 07:35:28;;;;;;;25.65;22.98;;;20.60;99.90;;;;;;5083088;28;20040;-70
2021/07/13 07:37:53;;;;;;;26.23;23.65;;;20.60;99.90;;;;;;5084109;28;20641;-70
2021/07/13 07:40:21;;;;;;;25.15;22.70;;;20.70;99.90;;;;;;5082773;28;20082;-70
2021/07/13 07:42:50;;;;;;;24.42;21.92;;;20.70;99.90;;;;;;5080239;28;20126;-70
2021/07/13 07:45:18;;;;;;;24.80;22.15;;;20.80;99.90;;;;;;5082807;28;20040;-70
2021/07/13 07:47:44;;;;;;;23.48;21.17;;;20.80;99.90;;;;;;5080496;28;20414;-70
2021/07/13 07:50:11;;;;;;;25.10;22.52;;;20.80;99.90;;;;;;5083718;28;20812;-70
2021/07/13 07:52:37;;;;;;;26.08;23.38;;;20.90;99.90;;;;;;5076479;28;20767;-70
2021/07/13 07:55:05;;;;;;;24.73;22.27;;;20.90;99.90;;;;;;5083739;28;20072;-70
2021/07/13 07:57:31;;;;;;;26.23;23.42;;;20.90;99.90;;;;;;5083187;28;20074;-70
2021/07/13 07:59:58;;;;;;;24.80;22.27;;;21.00;99.90;;;;;;5080659;28;20101;-70
2021/07/13 08:02:23;;;;;;;26.38;23.70;;;21.00;99.90;;;;;;5080577;28;20355;-70
2021/07/13 08:04:49;;;;;;;24.17;21.73;;;21.00;99.90;;;;;;5081907;28;20093;-70
2021/07/13 08:07:15;;;;;;;25.27;22.77;;;21.00;99.90;;;;;;5081433;28;20040;-71
2021/07/13 08:09:41;;;;;;;23.48;21.17;;;21.00;99.90;;;;;;5082390;28;20037;-70
2021/07/13 08:12:07;;;;;;;23.67;21.27;;;21.10;99.90;;;;;;5096726;28;20065;-70
2021/07/13 08:14:33;;;;;;;23.15;20.85;;;21.10;99.90;;;;;;5081140;28;20055;-70
2021/07/13 08:16:59;;;;;;;21.88;19.92;;;21.00;99.90;;;;;;5089217;28;20032;-70
2021/07/13 08:19:25;;;;;;;24.05;21.67;;;21.10;99.90;;;;;;5077440;28;20104;-71
2021/07/13 08:21:51;;;;;;;24.10;21.80;;;21.10;99.90;;;;;;5076764;28;20346;-70
2021/07/13 08:24:16;;;;;;;20.88;18.88;;;21.20;99.90;;;;;;5057351;28;20039;-70
2021/07/13 08:26:43;;;;;;;20.70;18.80;;;21.20;99.90;;;;;;5076533;28;20044;-71
2021/07/13 08:29:08;;;;;;;21.80;19.83;;;21.20;99.90;;;;;;5078861;28;20047;-71
2021/07/13 08:31:34;;;;;;;21.70;19.60;;;21.30;99.90;;;;;;5075488;28;20506;-70
2021/07/13 08:34:00;;;;;;;21.58;19.58;;;21.30;99.90;;;;;;5072579;28;20431;-70
2021/07/13 08:36:26;;;;;;;23.63;21.30;;;21.30;99.90;;;;;;5075667;28;20044;-70
2021/07/13 08:38:52;;;;;;;23.70;21.23;;;21.30;99.90;;;;;;5077400;28;20048;-71
2021/07/13 08:41:20;;;;;;;22.10;19.85;;;21.40;99.90;;;;;;5076968;28;20043;-70
2021/07/13 08:43:46;;;;;;;23.80;21.45;;;21.30;99.90;;;;;;5072434;28;20032;-70
2021/07/13 08:46:12;;;;;;;24.35;21.92;;;21.30;99.90;;;;;;5076329;28;20114;-71
2021/07/13 08:48:40;;;;;;;22.17;20.02;;;21.40;99.90;;;;;;5075278;28;20127;-71
2021/07/13 08:51:07;;;;;;;22.13;20.00;;;21.40;99.90;;;;;;5074834;28;20696;-71
2021/07/13 08:53:33;;;;;;;21.55;19.38;;;21.50;99.90;;;;;;5074268;28;20036;-71
2021/07/13 08:55:59;;;;;;;21.70;19.65;;;21.50;99.90;;;;;;5077789;28;20486;-71
2021/07/13 08:58:26;;;;;;;21.67;19.42;;;21.50;99.90;;;;;;5080273;28;20050;-71
2021/07/13 09:00:53;;;;;;;21.05;18.92;;;21.50;99.90;;;;;;5077886;28;20145;-71
2021/07/13 09:03:21;;;;;;;22.58;20.27;;;21.50;99.90;;;;;;5071810;28;20401;-70
2021/07/13 09:05:56;;;;;;;22.30;19.92;;;21.50;99.90;;;;;;5073491;28;20048;-71
2021/07/13 09:08:30;;;;;;;21.50;19.30;;;21.60;99.90;;;;;;5075344;28;20047;-71
2021/07/13 09:10:59;;;;;;;20.92;19.05;;;21.60;99.90;;;;;;5078842;28;20048;-71
2021/07/13 09:13:27;;;;;;;21.40;19.38;;;21.60;99.90;;;;;;5072742;28;20032;-70
2021/07/13 09:15:54;;;;;;;19.98;18.02;;;21.60;99.90;;;;;;5076086;28;20040;-70
2021/07/13 09:18:36;;;;;;;20.85;18.83;;;21.60;99.90;;;;;;5075672;28;20127;-70
2021/07/13 09:21:28;;;;;;;20.40;18.27;;;21.60;99.90;;;;;;5075197;28;20462;-71
2021/07/13 09:23:59;;;;;;;21.88;19.55;;;21.70;99.90;;;;;;5066192;28;20043;-71
2021/07/13 09:26:43;;;;;;;21.85;19.75;;;21.70;99.90;;;;;;5074619;28;20127;-70
2021/07/13 09:29:31;;;;;;;22.85;20.55;;;21.80;99.90;;;;;;5077107;28;20047;-71
2021/07/13 09:32:18;;;;;;;23.73;20.58;;;21.80;99.90;;;;;;5077094;28;20028;-71
2021/07/13 09:35:03;;;;;;;23.10;20.58;;;21.80;99.90;;;;;;5076321;28;20044;-71
2021/07/13 09:37:33;;;;;;;24.77;22.25;;;21.80;99.90;;;;;;5076719;28;20041;-71
2021/07/13 09:40:06;;;;;;;23.58;21.17;;;21.80;99.90;;;;;;5057976;28;20036;-71
2021/07/13 09:42:34;;;;;;;24.30;21.10;;;21.80;99.90;;;;;;5071180;28;21262;-71
2021/07/13 09:45:26;;;;;;;22.42;20.23;;;21.80;99.90;;;;;;5072318;28;20944;-70
2021/07/13 09:47:56;;;;;;;22.52;20.48;;;21.80;99.90;;;;;;5075441;28;20524;-71
2021/07/13 09:50:34;;;;;;;22.50;20.50;;;21.80;99.90;;;;;;5076766;28;20052;-71
2021/07/13 09:53:00;;;;;;;22.45;20.42;;;21.80;99.90;;;;;;5073459;28;20048;-71
2021/07/13 09:55:28;;;;;;;22.35;19.83;;;21.80;99.90;;;;;;5075866;28;20044;-71
2021/07/13 09:58:06;;;;;;;22.25;20.25;;;21.70;99.90;;;;;;5075912;28;20040;-71
2021/07/13 10:00:33;;;;;;;24.88;22.27;;;21.80;99.90;;;;;;5074334;28;20040;-71
2021/07/13 10:03:01;;;;;;;21.92;19.92;;;21.80;99.90;;;;;;5072146;28;20068;-71
2021/07/13 10:05:27;;;;;;;21.90;20.00;;;21.80;99.90;;;;;;5073957;28;20093;-71
2021/07/13 10:07:56;;;;;;;24.25;22.00;;;21.80;99.90;;;;;;5077408;28;20054;-71
2021/07/13 10:10:24;;;;;;;22.65;20.42;;;21.80;99.90;;;;;;5078401;28;20040;-71
2021/07/13 10:12:53;;;;;;;23.05;20.95;;;21.70;99.90;;;;;;5071732;28;20132;-71
2021/07/13 10:15:19;;;;;;;23.45;21.40;;;21.70;99.90;;;;;;5074506;28;20093;-71
2021/07/13 10:17:46;;;;;;;24.65;22.45;;;21.70;99.90;;;;;;5075405;28;20032;-71
2021/07/13 10:20:13;;;;;;;25.27;22.70;;;21.70;99.90;;;;;;5057568;28;20044;-68
2021/07/13 10:22:43;;;;;;;23.20;20.80;;;21.60;99.90;;;;;;5076085;28;20505;-68
2021/07/13 10:25:10;;;;;;;24.80;22.45;;;21.60;99.90;;;;;;5081335;28;20484;-69
2021/07/13 10:27:42;;;;;;;23.95;21.75;;;21.60;99.90;;;;;;5079764;28;20028;-69
2021/07/13 10:30:28;;;;;;;26.10;23.52;;;21.70;99.90;;;;;;5078941;28;20383;-68
2021/07/13 10:32:55;;;;;;;25.70;23.30;;;21.70;99.90;;;;;;5075953;28;21596;-71
2021/07/13 10:35:24;;;;;;;26.40;23.92;;;21.80;99.90;;;;;;5078059;28;20036;-71
2021/07/13 10:38:06;;;;;;;25.38;23.13;;;21.80;99.90;;;;;;5078799;28;20163;-71
2021/07/13 10:40:35;;;;;;;25.27;22.98;;;21.80;99.90;;;;;;5085821;28;20135;-71
2021/07/13 10:43:03;;;;;;;26.27;23.60;;;21.80;99.90;;;;;;5081151;28;20043;-71
2021/07/13 10:45:36;;;;;;;27.20;24.70;;;21.80;99.90;;;;;;5085680;28;20033;-72
2021/07/13 10:48:09;;;;;;;25.90;23.52;;;21.90;99.90;;;;;;5084020;28;20477;-72
2021/07/13 10:50:54;;;;;;;27.88;25.02;;;21.90;99.90;;;;;;5083223;28;20541;-72
2021/07/13 10:53:31;;;;;;;;;;;22.00;99.90;;;;;;5080196;28;20051;-71
2021/07/13 10:55:58;;;;;;;27.23;24.60;;;22.00;99.90;;;;;;5082479;28;20350;-71
2021/07/13 10:58:24;;;;;;;26.23;24.02;;;22.10;99.90;;;;;;5082163;28;20049;-71
2021/07/13 11:00:58;;;;;;;26.35;23.83;;;22.10;99.90;;;;;;5085231;28;20105;-71
2021/07/13 11:03:30;;;;;;;25.80;23.27;;;22.20;99.90;;;;;;5078611;28;20946;-71
2021/07/13 11:06:09;;;;;;;25.40;23.10;;;22.30;99.90;;;;;;5084911;28;20047;-71
2021/07/13 11:08:41;;;;;;;25.95;23.65;;;22.30;99.90;;;;;;5081422;28;20040;-71
2021/07/13 11:11:09;;;;;;;24.35;22.10;;;22.30;99.90;;;;;;5084051;28;20036;-71
2021/07/13 11:13:37;;;;;;;23.90;21.80;;;22.30;99.90;;;;;;5080685;28;20040;-71
2021/07/13 11:16:04;;;;;;;20.45;18.60;;;22.30;99.90;;;;;;5084823;28;20044;-71
2021/07/13 11:18:31;;;;;;;23.60;21.33;;;22.20;99.90;;;;;;5084601;28;20036;-71
2021/07/13 11:21:21;;;;;;;20.63;18.48;;;22.30;99.90;;;;;;5080444;28;20135;-71
2021/07/13 11:23:50;;;;;;;22.17;19.98;;;22.20;99.90;;;;;;5079785;28;20040;-71
2021/07/13 11:26:17;;;;;;;20.30;18.50;;;22.20;99.90;;;;;;5083884;28;20047;-70
2021/07/13 11:28:47;;;;;;;20.55;18.70;;;22.20;99.90;;;;;;5081780;28;20036;-71
2021/07/13 11:31:24;;;;;;;20.85;19.02;;;22.20;99.90;;;;;;5083144;28;20033;-71
2021/07/13 11:33:58;;;;;;;22.65;20.35;;;22.20;99.90;;;;;;5081504;28;20382;-71
2021/07/13 11:36:34;;;;;;;20.23;18.33;;;22.20;99.90;;;;;;5081757;28;20046;-71
2021/07/13 11:39:06;;;;;;;20.35;18.25;;;22.20;99.90;;;;;;5082714;28;20452;-71
2021/07/13 11:41:32;;;;;;;19.05;17.17;;;22.10;99.90;;;;;;5080506;28;20094;-71
2021/07/13 11:44:02;;;;;;;18.83;17.17;;;22.10;99.90;;;;;;5075459;28;20478;-71
2021/07/13 11:46:30;;;;;;;19.88;18.08;;;22.10;99.90;;;;;;5081160;28;20047;-71
2021/07/13 11:48:58;;;;;;;19.02;17.35;;;22.10;99.90;;;;;;5084224;28;20043;-71
2021/07/13 11:51:26;;;;;;;17.92;16.33;;;22.10;99.90;;;;;;5084347;28;20044;-71
2021/07/13 11:54:07;;;;;;;20.63;18.67;;;22.10;99.90;;;;;;5080763;28;20514;-71
2021/07/13 11:56:35;;;;;;;19.13;17.45;;;22.10;99.90;;;;;;5081126;28;20032;-71
2021/07/13 11:59:02;;;;;;;20.05;17.92;;;22.10;99.90;;;;;;5083850;28;20044;-71
2021/07/13 12:01:29;;;;;;;17.55;15.85;;;22.10;99.90;;;;;;5082810;28;20038;-70
2021/07/13 12:04:02;;;;;;;17.55;15.93;;;22.10;99.90;;;;;;5078239;28;20074;-70
2021/07/13 12:06:28;;;;;;;17.92;16.42;;;22.10;99.90;;;;;;5083057;28;20044;-71
2021/07/13 12:09:04;;;;;;;18.92;17.17;;;22.20;99.90;;;;;;5082919;28;20048;-70
2021/07/13 12:11:31;;;;;;;18.63;16.95;;;22.20;99.90;;;;;;5081993;28;20220;-71
2021/07/13 12:14:00;;;;;;;20.80;18.90;;;22.20;99.90;;;;;;5058319;28;20043;-71
2021/07/13 12:16:30;;;;;;;19.95;18.15;;;22.20;99.90;;;;;;5079001;28;21587;-71
2021/07/13 12:19:08;;;;;;;19.10;17.30;;;22.20;99.90;;;;;;5084273;28;20086;-71
2021/07/13 12:21:42;;;;;;;19.48;17.48;;;22.20;99.90;;;;;;5083527;28;20046;-71
2021/07/13 12:24:13;;;;;;;17.27;15.68;;;22.20;99.90;;;;;;5078302;28;20134;-71
2021/07/13 12:26:40;;;;;;;17.02;15.43;;;22.20;99.90;;;;;;5082552;28;20035;-71
2021/07/13 12:29:14;;;;;;;17.83;15.70;;;22.20;99.90;;;;;;5082900;28;20036;-71
2021/07/13 12:31:48;;;;;;;18.38;16.80;;;22.10;99.90;;;;;;5081787;28;20528;-71
2021/07/13 12:34:16;;;;;;;18.93;16.87;;;22.10;99.90;;;;;;5078375;28;20051;-71
2021/07/13 12:36:43;;;;;;;19.30;17.35;;;22.10;99.90;;;;;;5083432;28;20282;-71